Time;durP1;ratioP1;P1;durP2;ratioP2;P2;SDS_P1;SDS_P2;PMS_P1;PMS_P2;Temp;Humidity;BMP_temperature;BMP_pressure;BME280_temperature;BME280_humidity;BME280_pressure;Samples;Min_cycle;Max_cycle;Signal;HPM_P1;HPM_P2
2022/03/21 00:01:22;;;;;;;0.30;0.20;;;;;;;3.21;35.53;96979.31;5133462;27;20465;-53
2022/03/21 00:03:54;;;;;;;0.30;0.20;;;;;;;3.30;35.46;96988.69;5132829;27;20431;-54
2022/03/21 00:06:24;;;;;;;1.70;1.70;;;;;;;3.22;35.47;96991.41;5133706;27;20446;-54
2022/03/21 00:08:53;;;;;;;0.30;0.30;;;;;;;-0.43;35.33;96468.31;5132565;27;20542;-54
2022/03/21 00:11:21;;;;;;;0.30;0.20;;;;;;;3.68;37.79;96987.53;5132626;27;20438;-53
2022/03/21 00:13:56;;;;;;;0.40;0.40;;;;;;;3.59;36.80;96962.41;5133264;27;20427;-53
2022/03/21 00:16:25;;;;;;;0.60;0.43;;;;;;;2.25;34.64;96777.88;5133530;27;20446;-53
2022/03/21 00:18:54;;;;;;;0.30;0.23;;;;;;;3.13;34.51;96950.59;5133563;27;20419;-53
2022/03/21 00:21:24;;;;;;;0.30;0.20;;;;;;;3.71;35.68;96968.81;5132730;27;20519;-53
2022/03/21 00:23:52;;;;;;;0.30;0.23;;;;;;;3.60;52.78;96957.97;5132456;27;20431;-52
2022/03/21 00:26:21;;;;;;;0.40;0.40;;;;;;;3.25;35.14;96949.13;5133246;27;20457;-53
2022/03/21 00:28:49;;;;;;;0.30;0.20;;;;;;;3.26;34.04;96961.25;5133179;27;20419;-53
2022/03/21 00:31:18;;;;;;;0.73;0.67;;;;;;;3.30;35.63;96966.91;5133325;27;20458;-53
2022/03/21 00:33:47;;;;;;;0.30;0.30;;;;;;;2.88;35.76;96920.47;5133017;27;20437;-53
2022/03/21 00:36:15;;;;;;;0.30;0.30;;;;;;;3.31;36.18;96948.41;5133409;27;20503;-53
2022/03/21 00:39:06;;;;;;;0.30;0.30;;;;;;;3.17;34.43;96939.56;5132690;27;20445;-53
2022/03/21 00:41:34;;;;;;;0.30;0.20;;;;;;;3.27;34.66;96931.41;5132860;27;20966;-53
2022/03/21 00:44:03;;;;;;;0.30;0.20;;;;;;;3.56;35.12;96927.91;5132836;27;20829;-53
2022/03/21 00:46:31;;;;;;;0.30;0.20;;;;;;;3.44;36.53;96859.41;5132845;27;20983;-53
2022/03/21 00:49:00;;;;;;;0.63;0.63;;;;;;;3.67;34.54;96916.91;5132640;27;20461;-53
2022/03/21 00:51:29;;;;;;;0.87;0.70;;;;;;;3.78;33.95;96919.84;5132888;27;20457;-53
2022/03/21 00:53:57;;;;;;;4.53;0.40;;;;;;;-1.05;37.84;96209.94;5132918;27;20459;-53
2022/03/21 00:56:27;;;;;;;2.67;1.80;;;;;;;3.36;45.67;96909.34;5132877;27;20458;-53
2022/03/21 00:58:56;;;;;;;0.30;0.20;;;;;;;3.72;38.74;96923.22;5132788;27;20475;-54
2022/03/21 01:01:25;;;;;;;0.30;0.20;;;;;;;3.06;33.37;96885.00;5132952;28;20519;-53
2022/03/21 01:03:54;;;;;;;0.30;0.20;;;;;;;3.42;34.48;96913.00;5133189;27;20959;-53
2022/03/21 01:06:23;;;;;;;0.30;0.20;;;;;;;3.57;34.14;96896.25;5132731;28;20516;-52
2022/03/21 01:08:52;;;;;;;0.30;0.20;;;;;;;3.18;33.11;96906.31;5132405;28;20474;-54
2022/03/21 01:11:22;;;;;;;0.30;0.20;;;;;;;3.55;33.68;96906.09;5132664;28;20430;-53
2022/03/21 01:13:52;;;;;;;0.63;0.63;;;;;;;3.85;33.80;96897.13;5132973;27;20433;-53
2022/03/21 01:16:20;;;;;;;0.50;0.47;;;;;;;3.76;34.22;96984.81;5136723;27;20854;-53
2022/03/21 01:18:49;;;;;;;0.30;0.20;;;;;;;4.10;37.08;96907.22;5136722;27;20433;-53
2022/03/21 01:21:17;;;;;;;0.43;0.43;;;;;;;2.53;37.35;96712.59;5136043;27;20573;-53
2022/03/21 01:23:46;;;;;;;0.30;0.20;;;;;;;3.99;37.88;96902.47;5136349;27;20418;-53
2022/03/21 01:26:14;;;;;;;0.30;0.30;;;;;;;3.51;36.35;96907.50;5136794;27;20855;-53
2022/03/21 01:28:44;;;;;;;0.30;0.30;;;;;;;3.60;36.97;96898.50;5136620;27;20567;-54
2022/03/21 01:31:14;;;;;;;0.77;0.77;;;;;;;3.98;34.93;96901.66;5135558;27;20434;-53
2022/03/21 01:33:42;;;;;;;0.50;0.47;;;;;;;4.04;35.63;96902.72;5136869;27;20581;-53
2022/03/21 01:36:11;;;;;;;0.53;0.53;;;;;;;4.19;40.61;96887.69;5136077;27;20483;-53
2022/03/21 01:38:39;;;;;;;0.30;0.20;;;;;;;3.94;36.82;96902.25;5136156;27;20430;-53
2022/03/21 01:41:07;;;;;;;0.53;0.53;;;;;;;3.46;39.95;96880.22;5136150;27;20462;-53
2022/03/21 01:44:00;;;;;;;0.20;0.10;;;;;;;3.20;35.25;96851.91;5136513;27;20861;-53
2022/03/21 01:46:31;;;;;;;0.30;0.20;;;;;;;3.99;38.73;96889.38;5135946;27;20430;-53
2022/03/21 01:49:00;;;;;;;0.30;0.23;;;;;;;3.51;35.25;96902.25;5136281;27;20839;-53
2022/03/21 01:51:29;;;;;;;0.30;0.20;;;;;;;3.52;37.41;96892.56;5136151;27;20502;-53
2022/03/21 01:56:47;;;;;;;0.30;0.20;;;;;;;3.65;35.42;96890.06;5135808;27;20480;-53
2022/03/21 01:59:16;;;;;;;1.37;1.37;;;;;;;2.73;37.02;96883.81;5136003;27;20450;-53
2022/03/21 02:01:47;;;;;;;0.30;0.20;;;;;;;2.94;37.77;96881.25;5135723;27;20509;-53
2022/03/21 02:04:16;;;;;;;0.30;0.20;;;;;;;3.12;44.61;96855.47;5135196;27;20513;-53
2022/03/21 02:06:45;;;;;;;0.23;0.20;;;;;;;3.80;50.06;96870.66;5135840;27;20513;-53
2022/03/21 02:09:14;;;;;;;0.87;0.87;;;;;;;3.11;37.47;96859.06;5134467;27;20517;-53
2022/03/21 02:11:42;;;;;;;0.30;0.20;;;;;;;1.66;42.64;96692.63;5134477;28;20479;-53
2022/03/21 02:14:11;;;;;;;0.30;0.30;;;;;;;3.14;37.01;96873.59;5134401;28;20410;-53
2022/03/21 02:16:40;;;;;;;0.30;0.20;;;;;;;3.33;37.27;96878.25;5134516;28;20514;-53
2022/03/21 02:19:22;;;;;;;1.07;1.07;;;;;;;2.69;36.38;96821.50;5134369;28;20435;-53
2022/03/21 02:22:01;;;;;;;0.30;0.20;;;;;;;2.80;36.57;96873.41;5134056;28;20505;-54
2022/03/21 02:24:37;;;;;;;1.10;1.10;;;;;;;2.59;51.21;96690.94;5134059;28;20514;-53
2022/03/21 02:27:09;;;;;;;0.30;0.20;;;;;;;3.80;37.22;96875.88;5133123;27;21037;-53
2022/03/21 02:29:38;;;;;;;0.30;0.20;;;;;;;2.41;36.20;96698.38;5134408;27;20501;-53
2022/03/21 02:32:08;;;;;;;0.30;0.20;;;;;;;3.13;37.25;96885.09;5133437;28;20471;-53
2022/03/21 02:34:38;;;;;;;0.30;0.20;;;;;;;3.20;36.91;96880.75;5133725;28;20919;-54
2022/03/21 02:37:10;;;;;;;0.30;0.20;;;;;;;2.60;37.02;96875.78;5134065;28;20501;-53
2022/03/21 02:39:39;;;;;;;0.30;0.20;;;;;;;3.41;37.17;96865.06;5133955;28;20954;-53
2022/03/21 02:42:10;;;;;;;0.30;0.20;;;;;;;3.31;36.44;96869.78;5134102;28;20470;-53
2022/03/21 02:44:44;;;;;;;0.30;0.20;;;;;;;3.48;36.48;96867.72;5133754;28;20423;-53
2022/03/21 02:47:12;;;;;;;0.93;0.87;;;;;;;2.17;36.85;96762.31;5133769;28;20898;-54
2022/03/21 02:49:41;;;;;;;0.30;0.20;;;;;;;2.76;37.54;96853.84;5133614;27;20517;-53
2022/03/21 02:52:12;;;;;;;0.30;0.20;;;;;;;1.88;36.71;96673.41;5132945;28;20419;-53
2022/03/21 02:54:40;;;;;;;0.30;0.30;;;;;;;2.81;36.96;96851.50;5133556;28;20434;-54
2022/03/21 02:57:10;;;;;;;0.40;0.40;;;;;;;2.92;36.21;96851.81;5133498;28;20509;-53
2022/03/21 02:59:38;;;;;;;0.30;0.20;;;;;;;3.21;39.88;96850.94;5133455;28;20462;-53
2022/03/21 03:02:08;;;;;;;0.60;0.33;;;;;;;2.85;37.03;96795.94;5133481;28;20458;-53
2022/03/21 03:04:37;;;;;;;0.30;0.20;;;;;;;2.90;37.26;96845.13;5133385;28;20431;-54
2022/03/21 03:07:05;;;;;;;0.50;0.50;;;;;;;2.88;37.65;96841.91;5133831;28;20480;-54
2022/03/21 03:09:51;;;;;;;0.63;0.63;;;;;;;2.56;37.00;96843.91;5109306;27;20548;-52
2022/03/21 03:12:19;;;;;;;0.40;0.40;;;;;;;2.51;37.47;96856.75;5109463;28;20450;-53
2022/03/21 03:14:48;;;;;;;0.40;0.40;;;;;;;2.13;39.15;96855.19;5109524;28;20512;-53
2022/03/21 03:17:16;;;;;;;0.53;0.50;;;;;;;2.23;38.73;96874.06;5108758;28;20428;-53
2022/03/21 03:19:45;;;;;;;0.40;0.40;;;;;;;2.72;38.31;96852.56;5109594;28;20432;-53
2022/03/21 03:22:14;;;;;;;0.30;0.20;;;;;;;2.93;38.02;96857.88;5109268;28;20907;-53
2022/03/21 03:24:43;;;;;;;0.30;0.20;;;;;;;2.38;38.12;96847.88;5109354;28;20427;-53
2022/03/21 03:27:13;;;;;;;0.30;0.20;;;;;;;2.76;37.55;96854.63;5109133;28;20999;-53
2022/03/21 03:29:41;;;;;;;0.30;0.30;;;;;;;2.55;37.70;96857.97;5109344;28;20562;-53
2022/03/21 03:32:10;;;;;;;0.30;0.20;;;;;;;2.39;38.27;96836.44;5109384;28;20417;-53
2022/03/21 03:34:38;;;;;;;0.27;0.20;;;;;;;2.22;37.73;96848.09;5109137;28;20523;-53
2022/03/21 03:37:07;;;;;;;0.40;0.30;;;;;;;2.42;37.54;96844.75;5109299;28;20455;-53
2022/03/21 03:39:35;;;;;;;0.80;0.80;;;;;;;2.57;37.41;96849.97;5109267;28;20496;-53
2022/03/21 03:42:04;;;;;;;0.70;0.50;;;;;;;2.51;37.85;96848.06;5109166;28;20493;-53
2022/03/21 03:44:34;;;;;;;0.43;0.40;;;;;;;2.68;37.31;96840.84;5108924;28;21000;-53
2022/03/21 03:47:03;;;;;;;0.37;0.33;;;;;;;2.73;37.39;96839.31;5108430;28;20431;-53
2022/03/21 03:49:31;;;;;;;0.30;0.20;;;;;;;2.77;37.34;96830.09;5109002;28;20874;-53
2022/03/21 03:51:59;;;;;;;0.57;0.57;;;;;;;2.81;36.80;96838.41;5109089;28;20424;-53
2022/03/21 03:54:28;;;;;;;0.30;0.20;;;;;;;2.78;36.65;96833.53;5108759;28;20507;-53
2022/03/21 03:56:56;;;;;;;0.30;0.20;;;;;;;2.79;36.52;96833.31;5108631;28;20431;-53
2022/03/21 03:59:25;;;;;;;1.57;1.57;;;;;;;2.77;36.32;96837.13;5108906;28;20804;-53
2022/03/21 04:01:54;;;;;;;0.30;0.20;;;;;;;3.46;36.04;96841.72;5108563;28;20522;-53
2022/03/21 04:04:24;;;;;;;0.70;0.47;;;;;;;2.96;37.13;96820.84;5108564;28;20428;-54
2022/03/21 04:06:53;;;;;;;0.40;0.20;;;;;;;2.65;37.93;96841.22;5107273;28;20483;-53
2022/03/21 04:09:21;;;;;;;0.30;0.30;;;;;;;2.72;37.41;96826.38;5108075;28;20487;-53
2022/03/21 04:11:50;;;;;;;0.30;0.20;;;;;;;3.12;36.76;96838.94;5108683;28;20459;-53
2022/03/21 04:14:18;;;;;;;0.40;0.40;;;;;;;2.67;37.90;96834.78;5108321;28;20470;-53
2022/03/21 04:16:47;;;;;;;0.30;0.20;;;;;;;2.49;37.93;96837.78;5108366;28;20779;-53
2022/03/21 04:19:16;;;;;;;0.30;0.20;;;;;;;2.90;37.76;96829.41;5105422;28;20464;-53
2022/03/21 04:21:45;;;;;;;0.30;0.20;;;;;;;2.59;38.02;96837.50;5094327;28;20515;-53
2022/03/21 04:24:13;;;;;;;0.30;0.20;;;;;;;2.60;38.28;96839.16;5094523;28;20460;-53
2022/03/21 04:26:41;;;;;;;0.30;0.20;;;;;;;2.65;38.02;96830.75;5094405;28;20437;-53
2022/03/21 04:29:10;;;;;;;1.60;1.43;;;;;;;2.57;38.01;96839.50;5094085;28;20578;-53
2022/03/21 04:31:38;;;;;;;0.30;0.20;;;;;;;2.82;37.21;96832.97;5094106;28;20463;-53
2022/03/21 04:34:07;;;;;;;0.30;0.20;;;;;;;2.90;37.17;96834.66;5094775;28;20435;-53
2022/03/21 04:36:39;;;;;;;0.40;0.20;;;;;;;3.32;36.90;96834.69;5094274;28;20515;-52
2022/03/21 04:39:08;;;;;;;0.27;0.20;;;;;;;3.28;37.31;96828.22;5094591;28;20416;-53
2022/03/21 04:41:36;;;;;;;0.37;0.37;;;;;;;2.95;37.53;96837.53;5094286;28;20527;-53
2022/03/21 04:44:05;;;;;;;0.50;0.50;;;;;;;2.84;39.60;96836.19;5094262;28;20429;-53
2022/03/21 04:46:33;;;;;;;0.80;0.53;;;;;;;2.80;37.19;96834.13;5094159;28;20460;-53
2022/03/21 04:49:02;;;;;;;0.30;0.20;;;;;;;2.81;37.44;96830.53;5094371;28;20521;-53
2022/03/21 04:51:31;;;;;;;0.67;0.67;;;;;;;2.84;37.68;96836.19;5093915;28;20444;-53
2022/03/21 04:54:01;;;;;;;0.30;0.20;;;;;;;3.01;50.25;96836.81;5094334;28;20432;-53
2022/03/21 04:56:30;;;;;;;0.30;0.20;;;;;;;3.03;37.81;96825.16;5093460;28;20463;-54
2022/03/21 04:58:58;;;;;;;1.37;1.33;;;;;;;3.27;38.65;96837.06;5093841;28;20432;-53
2022/03/21 05:01:27;;;;;;;0.30;0.20;;;;;;;3.05;41.80;96848.53;5094030;28;20771;-53
2022/03/21 05:03:56;;;;;;;0.30;0.20;;;;;;;3.18;37.06;96838.19;5093686;28;20436;-53
2022/03/21 05:06:25;;;;;;;0.50;0.50;;;;;;;2.93;36.91;96781.91;5093581;28;20555;-53
2022/03/21 05:08:54;;;;;;;2.00;0.90;;;;;;;1.94;37.10;96685.78;5093470;28;20476;-54
2022/03/21 05:11:23;;;;;;;0.30;0.20;;;;;;;3.20;37.54;96846.69;5093333;28;20452;-53
2022/03/21 05:13:52;;;;;;;0.30;0.20;;;;;;;2.88;37.03;96816.53;5093672;28;20424;-54
2022/03/21 05:16:20;;;;;;;2.03;1.97;;;;;;;3.51;39.40;96833.28;5093485;28;20487;-53
2022/03/21 05:18:50;;;;;;;1.17;1.17;;;;;;;3.95;35.95;96833.84;5093626;28;20437;-53
2022/03/21 05:21:18;;;;;;;0.30;0.20;;;;;;;3.89;36.17;96836.41;5093021;28;20433;-53
2022/03/21 05:32:06;;;;;;;0.30;0.27;;;;;;;4.06;36.18;96840.38;5091881;28;20471;-53
2022/03/21 05:37:20;;;;;;;0.30;0.27;;;;;;;3.69;37.21;96842.28;5093399;28;20460;-53
2022/03/21 05:45:23;;;;;;;0.30;0.20;;;;;;;4.16;36.10;96835.59;5092924;28;20499;-53
2022/03/21 05:50:38;;;;;;;0.30;0.30;;;;;;;4.42;35.20;96786.72;5092640;28;20510;-54
2022/03/21 05:53:08;;;;;;;0.60;0.30;;;;;;;4.36;40.26;96832.09;5093160;28;20463;-54
2022/03/21 05:55:37;;;;;;;0.90;0.87;;;;;;;4.24;35.00;96760.16;5092926;28;20941;-54
2022/03/21 05:58:07;;;;;;;0.40;0.40;;;;;;;4.77;35.08;96831.28;5092665;28;20798;-54
2022/03/21 06:00:36;;;;;;;6.63;0.53;;;;;;;4.68;34.90;96833.25;5092836;28;20457;-53
2022/03/21 06:03:08;;;;;;;0.70;0.70;;;;;;;4.80;34.79;96830.91;5092703;28;20425;-53
2022/03/21 06:05:36;;;;;;;0.40;0.40;;;;;;;5.13;38.29;96823.94;5092447;28;20947;-53
2022/03/21 06:08:05;;;;;;;0.50;0.30;;;;;;;5.34;34.40;96823.78;5092396;28;20492;-52
2022/03/21 06:10:34;;;;;;;0.50;0.40;;;;;;;5.29;35.99;96820.94;5091791;28;20515;-52
2022/03/21 06:13:21;;;;;;;1.90;1.30;;;;;;;5.60;38.65;96821.19;5092562;28;20432;-53
2022/03/21 06:15:51;;;;;;;0.30;0.20;;;;;;;6.19;32.67;96818.59;5092216;28;20494;-53
2022/03/21 06:18:19;;;;;;;0.33;0.30;;;;;;;6.07;32.22;96825.47;5092765;28;20456;-53
2022/03/21 06:20:48;;;;;;;0.30;0.20;;;;;;;6.31;31.93;96822.19;5091991;28;20460;-53
2022/03/21 06:23:16;;;;;;;0.40;0.30;;;;;;;6.15;31.24;96817.34;5092343;28;20421;-53
2022/03/21 06:25:45;;;;;;;0.30;0.20;;;;;;;6.42;32.17;96823.41;5092093;28;20489;-53
2022/03/21 06:28:13;;;;;;;0.50;0.50;;;;;;;6.98;32.79;96821.78;5092362;28;20448;-53
2022/03/21 06:30:42;;;;;;;1.13;1.03;;;;;;;7.19;30.64;96817.22;5092447;28;20920;-53
2022/03/21 06:33:11;;;;;;;0.40;0.30;;;;;;;7.16;33.51;96778.88;5092178;28;20432;-52
2022/03/21 06:35:40;;;;;;;0.50;0.50;;;;;;;8.10;29.89;96813.09;5092405;28;20448;-52
2022/03/21 06:38:10;;;;;;;0.30;0.20;;;;;;;7.92;29.73;96800.66;5091948;28;20464;-52
2022/03/21 06:40:39;;;;;;;2.83;1.13;;;;;;;7.76;30.46;96821.53;5092495;28;20460;-51
2022/03/21 06:43:07;;;;;;;0.50;0.50;;;;;;;7.27;30.87;96809.88;5091756;28;20471;-51
2022/03/21 06:45:36;;;;;;;1.90;1.80;;;;;;;8.07;31.83;96810.91;5092297;28;20424;-51
2022/03/21 06:48:05;;;;;;;0.70;0.70;;;;;;;7.56;29.98;96814.53;5092312;28;20432;-51
2022/03/21 06:50:35;;;;;;;0.63;0.63;;;;;;;7.81;29.86;96809.31;5091983;28;20976;-51
2022/03/21 06:53:03;;;;;;;0.73;0.73;;;;;;;8.13;29.51;96813.50;5091808;28;20891;-51
2022/03/21 06:55:32;;;;;;;0.37;0.27;;;;;;;8.43;30.64;96811.00;5092253;28;20789;-51
2022/03/21 06:58:01;;;;;;;0.63;0.60;;;;;;;7.81;29.16;96797.94;5092320;28;20447;-51
2022/03/21 07:00:29;;;;;;;0.43;0.40;;;;;;;8.04;34.12;96804.25;5091705;28;20504;-51
2022/03/21 07:02:58;;;;;;;0.50;0.50;;;;;;;7.74;29.86;96794.53;5091610;28;20429;-51
2022/03/21 07:05:28;;;;;;;0.50;0.43;;;;;;;7.75;29.47;96786.41;5091150;28;20435;-51
2022/03/21 07:07:58;;;;;;;3.37;0.87;;;;;;;7.56;30.21;96806.63;5091759;28;20487;-51
2022/03/21 07:10:27;;;;;;;0.40;0.30;;;;;;;7.27;33.20;96799.31;5091512;28;20960;-51
2022/03/21 07:12:55;;;;;;;0.30;0.20;;;;;;;7.85;31.47;96805.19;5091350;28;20463;-51
2022/03/21 07:15:23;;;;;;;1.23;1.23;;;;;;;4.86;30.33;96562.16;5091683;28;21042;-52
2022/03/21 07:17:55;;;;;;;0.90;0.83;;;;;;;6.78;30.27;96778.09;5091951;28;20515;-52
2022/03/21 07:20:25;;;;;;;0.43;0.43;;;;;;;6.52;30.61;96791.34;5091838;28;20495;-52
2022/03/21 07:22:54;;;;;;;0.30;0.20;;;;;;;6.62;31.51;96786.47;5091611;28;20439;-52
2022/03/21 07:25:25;;;;;;;0.93;0.70;;;;;;;6.77;30.71;96781.75;5091694;28;20460;-52
2022/03/21 07:27:54;;;;;;;0.40;0.30;;;;;;;6.71;30.25;96712.22;5091984;28;20432;-52
2022/03/21 07:30:22;;;;;;;0.87;0.87;;;;;;;7.12;31.65;96761.06;5090975;28;20468;-52
2022/03/21 07:32:50;;;;;;;0.30;0.30;;;;;;;6.70;31.64;96775.69;5091385;28;20995;-52
2022/03/21 07:35:19;;;;;;;0.63;0.63;;;;;;;7.45;31.27;96767.75;5091545;28;20472;-52
2022/03/21 07:37:50;;;;;;;0.50;0.40;;;;;;;7.57;34.22;96773.13;5091328;28;20956;-51
2022/03/21 07:40:19;;;;;;;6.40;0.93;;;;;;;6.13;31.35;96773.81;5091180;28;20561;-51
2022/03/21 07:42:50;;;;;;;1.80;1.80;;;;;;;6.57;34.53;96767.84;5091001;28;20446;-51
2022/03/21 07:48:05;;;;;;;0.60;0.60;;;;;;;6.66;34.23;96761.31;5091675;28;20428;-51
2022/03/21 07:50:34;;;;;;;0.50;0.50;;;;;;;6.68;34.94;96709.22;5091329;28;20468;-51
2022/03/21 07:53:03;;;;;;;1.50;0.30;;;;;;;7.28;31.38;96748.19;5091232;28;20470;-51
2022/03/21 07:55:31;;;;;;;2.00;1.77;;;;;;;6.68;30.17;96775.88;5093360;28;20762;-51
2022/03/21 07:58:02;;;;;;;0.40;0.37;;;;;;;7.37;31.57;96731.09;5095270;28;20487;-51
2022/03/21 08:00:31;;;;;;;0.80;0.70;;;;;;;7.74;29.52;96733.84;5094860;28;20489;-50
2022/03/21 08:03:00;;;;;;;2.50;0.83;;;;;;;8.76;33.48;96729.50;5095197;28;20782;-50
2022/03/21 08:05:29;;;;;;;0.30;0.30;;;;;;;9.51;30.41;96724.56;5094708;28;20802;-50
2022/03/21 08:07:58;;;;;;;1.17;1.07;;;;;;;9.54;29.09;96721.44;5094700;28;20553;-50
2022/03/21 08:10:27;;;;;;;7.40;1.73;;;;;;;9.96;31.96;96719.53;5094627;28;20507;-50
2022/03/21 08:12:56;;;;;;;0.87;0.87;;;;;;;8.71;27.88;96763.72;5094017;28;20523;-50
2022/03/21 08:15:26;;;;;;;0.60;0.60;;;;;;;8.33;28.92;96665.38;5094315;28;20976;-50
2022/03/21 08:17:57;;;;;;;0.30;0.20;;;;;;;9.06;29.80;96726.06;5094243;28;20463;-50
2022/03/21 08:20:33;;;;;;;0.53;0.40;;;;;;;8.60;29.94;96724.81;5094722;28;20448;-50
2022/03/21 08:23:03;;;;;;;0.40;0.37;;;;;;;9.01;28.60;96715.31;5094597;28;20522;-50
2022/03/21 08:25:31;;;;;;;2.13;1.90;;;;;;;9.12;27.47;96712.72;5094571;28;20482;-51
2022/03/21 08:28:00;;;;;;;0.63;0.37;;;;;;;9.38;27.66;96706.25;5094371;28;20761;-51
2022/03/21 08:30:32;;;;;;;0.40;0.30;;;;;;;9.53;27.28;96711.91;5094833;28;20961;-51
2022/03/21 08:33:02;;;;;;;0.50;0.50;;;;;;;10.72;26.62;96692.78;5094047;28;20439;-52
2022/03/21 08:35:31;;;;;;;0.60;0.60;;;;;;;10.99;27.00;96691.19;5094699;28;20758;-52
2022/03/21 08:38:00;;;;;;;0.40;0.30;;;;;;;11.41;25.52;96689.78;5094478;28;20520;-54
2022/03/21 08:40:29;;;;;;;0.67;0.60;;;;;;;11.31;25.32;96686.97;5094261;28;20417;-54
2022/03/21 08:42:58;;;;;;;1.43;1.33;;;;;;;11.63;25.92;96678.44;5094556;28;20494;-55
2022/03/21 08:45:26;;;;;;;0.50;0.50;;;;;;;12.17;24.96;96672.34;5094146;28;20927;-55
2022/03/21 08:47:56;;;;;;;0.87;0.87;;;;;;;11.80;26.63;96681.91;5093999;28;20830;-55
2022/03/21 08:50:27;;;;;;;6.33;0.40;;;;;;;11.73;24.86;96676.78;5093919;28;20432;-55
2022/03/21 08:52:58;;;;;;;1.50;1.40;;;;;;;12.01;24.64;96643.97;5093892;28;20528;-55
2022/03/21 08:55:27;;;;;;;1.73;0.87;;;;;;;13.08;25.27;96662.78;5093901;28;20907;-55
2022/03/21 08:57:56;;;;;;;1.60;0.60;;;;;;;12.30;24.79;96657.88;5093190;28;20456;-56
2022/03/21 09:00:24;;;;;;;3.03;1.73;;;;;;;12.69;24.33;96651.44;5093190;28;20520;-57
2022/03/21 09:02:54;;;;;;;1.47;0.53;;;;;;;12.30;23.59;96653.38;5095132;28;20428;-56
2022/03/21 09:05:25;;;;;;;1.70;1.60;;;;;;;13.48;27.48;96647.16;5093715;28;20464;-56
2022/03/21 09:07:53;;;;;;;0.87;0.87;;;;;;;13.36;22.96;96635.88;5093278;28;20468;-56
2022/03/21 09:10:21;;;;;;;0.67;0.67;;;;;;;12.99;22.78;96582.56;5093816;28;20440;-56
2022/03/21 09:12:50;;;;;;;0.83;0.77;;;;;;;14.29;23.01;96629.00;5093492;28;20968;-56
2022/03/21 09:15:19;;;;;;;0.87;0.87;;;;;;;13.18;21.41;96633.59;5093434;28;20421;-56
2022/03/21 09:17:47;;;;;;;26.37;1.90;;;;;;;12.75;23.86;96627.28;5093465;28;20464;-56
2022/03/21 09:20:17;;;;;;;4.23;0.70;;;;;;;14.50;21.64;96626.16;5093692;28;20416;-56
2022/03/21 09:22:47;;;;;;;0.90;0.90;;;;;;;14.12;21.96;96629.16;5093251;28;20482;-56
2022/03/21 09:25:17;;;;;;;0.93;0.80;;;;;;;13.70;22.68;96623.88;5093385;28;20468;-56
2022/03/21 09:27:45;;;;;;;0.50;0.50;;;;;;;13.43;21.86;96625.00;5092944;28;20424;-56
2022/03/21 09:30:13;;;;;;;1.33;1.33;;;;;;;13.19;23.44;96616.56;5092211;28;20860;-55
2022/03/21 09:32:42;;;;;;;0.67;0.67;;;;;;;14.28;21.76;96620.19;5093344;28;20507;-55
2022/03/21 09:35:13;;;;;;;1.37;0.70;;;;;;;14.17;22.09;96617.72;5093307;28;20428;-56
2022/03/21 09:37:46;;;;;;;2.43;0.90;;;;;;;13.19;21.92;96613.91;5093000;28;20430;-55
2022/03/21 09:40:17;;;;;;;6.50;0.47;;;;;;;13.35;22.66;96591.66;5093254;28;20458;-55
2022/03/21 09:42:45;;;;;;;2.10;1.27;;;;;;;14.19;22.35;96618.28;5092602;28;20511;-54
2022/03/21 09:45:15;;;;;;;4.20;0.50;;;;;;;14.69;20.55;96607.81;5092883;28;20493;-54
2022/03/21 09:50:35;;;;;;;0.70;0.40;;;;;;;16.05;19.83;96602.47;5092851;28;20515;-54
2022/03/21 09:53:05;;;;;;;0.63;0.60;;;;;;;15.16;22.17;96597.75;5093123;28;20896;-53
2022/03/21 09:55:34;;;;;;;1.50;1.50;;;;;;;14.44;21.01;96616.56;5093092;28;20511;-54
2022/03/21 09:58:03;;;;;;;0.63;0.63;;;;;;;15.34;20.22;96609.75;5092620;28;20479;-53
2022/03/21 10:00:32;;;;;;;1.20;0.70;;;;;;;15.94;20.28;96597.44;5092621;28;20897;-53
2022/03/21 10:03:01;;;;;;;0.40;0.37;;;;;;;15.43;19.66;96588.66;5092614;28;20428;-54
2022/03/21 10:05:38;;;;;;;0.63;0.63;;;;;;;15.27;21.73;96595.88;5092529;28;20425;-53
2022/03/21 10:08:20;;;;;;;2.97;2.87;;;;;;;15.01;20.64;96588.91;5092170;28;20558;-54
2022/03/21 10:10:56;;;;;;;1.67;0.50;;;;;;;14.82;19.94;96585.97;5092734;28;20452;-53
2022/03/21 10:13:28;;;;;;;0.83;0.70;;;;;;;17.38;19.91;96580.84;5092641;28;20838;-53
2022/03/21 10:16:09;;;;;;;0.40;0.30;;;;;;;15.50;18.02;96565.16;5092415;28;20427;-54
2022/03/21 10:18:39;;;;;;;0.57;0.50;;;;;;;17.45;17.07;96575.97;5091947;28;20432;-54
2022/03/21 10:21:11;;;;;;;0.57;0.40;;;;;;;18.40;16.13;96581.41;5092327;28;20447;-54
2022/03/21 10:23:44;;;;;;;0.40;0.30;;;;;;;18.47;16.14;96527.41;5092267;28;20507;-54
2022/03/21 10:26:28;;;;;;;0.50;0.50;;;;;;;17.90;15.48;96572.06;5092243;28;20425;-54
2022/03/21 10:28:58;;;;;;;0.60;0.60;;;;;;;17.92;15.80;96569.09;5090318;28;20549;-54
2022/03/21 10:31:38;;;;;;;0.80;0.77;;;;;;;17.80;14.06;96577.53;5092102;28;20467;-54
2022/03/21 10:34:08;;;;;;;0.50;0.40;;;;;;;17.37;16.43;96579.25;5092342;28;20439;-54
2022/03/21 10:36:57;;;;;;;3.50;0.53;;;;;;;16.96;16.62;96583.31;5092725;28;20470;-54
2022/03/21 10:39:28;;;;;;;1.13;1.03;;;;;;;17.83;15.77;96578.84;5092605;28;20486;-54
2022/03/21 10:41:59;;;;;;;0.47;0.33;;;;;;;17.28;16.28;96542.63;5092269;28;20444;-55
2022/03/21 10:44:28;;;;;;;1.67;0.60;;;;;;;18.96;15.04;96555.41;5092147;28;20468;-55
2022/03/21 10:46:58;;;;;;;0.50;0.50;;;;;;;17.31;15.50;96532.13;5092114;28;20440;-53
2022/03/21 10:49:31;;;;;;;0.67;0.67;;;;;;;17.19;16.18;96560.38;5092089;28;20452;-54
2022/03/21 10:51:59;;;;;;;6.00;0.60;;;;;;;17.84;16.27;96558.97;5091871;28;20508;-53
2022/03/21 10:54:41;;;;;;;1.70;0.40;;;;;;;19.10;15.11;96535.88;5090997;28;20460;-53
2022/03/21 10:57:34;;;;;;;0.50;0.50;;;;;;;18.75;16.54;96548.75;5091844;28;20841;-54
2022/03/21 11:00:17;;;;;;;0.73;0.73;;;;;;;17.42;16.61;96544.38;5091843;28;20421;-53
2022/03/21 11:02:51;;;;;;;0.90;0.90;;;;;;;16.22;16.94;96554.78;5091466;28;20929;-53
2022/03/21 11:05:20;;;;;;;0.83;0.30;;;;;;;17.30;16.56;96524.38;5091889;28;20421;-54
2022/03/21 11:07:49;;;;;;;0.77;0.77;;;;;;;17.52;16.80;96544.31;5091414;28;20491;-53
2022/03/21 11:10:19;;;;;;;0.63;0.63;;;;;;;19.77;18.11;96529.88;5091703;28;20457;-53
2022/03/21 11:12:47;;;;;;;1.73;1.40;;;;;;;18.57;15.58;96533.41;5091351;28;20468;-54
2022/03/21 11:15:16;;;;;;;0.40;0.30;;;;;;;17.50;17.10;96534.91;5091682;28;20424;-53
2022/03/21 11:17:46;;;;;;;0.40;0.40;;;;;;;18.32;17.42;96529.16;5091550;28;20472;-53
2022/03/21 11:20:15;;;;;;;0.40;0.20;;;;;;;19.11;16.53;96527.50;5091683;28;20428;-53
2022/03/21 11:22:44;;;;;;;0.40;0.30;;;;;;;17.66;16.42;96522.97;5091509;28;20515;-53
2022/03/21 11:25:14;;;;;;;0.40;0.30;;;;;;;16.98;17.15;96532.94;5091108;28;20441;-53
2022/03/21 11:28:09;;;;;;;0.50;0.50;;;;;;;17.72;17.69;96519.16;5091698;28;20460;-53
2022/03/21 11:31:10;;;;;;;2.30;0.97;;;;;;;16.99;17.70;96515.81;5093814;28;20523;-53
2022/03/21 11:33:44;;;;;;;0.30;0.20;;;;;;;18.17;17.76;96502.53;5087247;28;20531;-55
2022/03/21 11:36:14;;;;;;;0.40;0.40;;;;;;;18.59;16.61;96493.66;5095995;28;20499;-53
2022/03/21 11:38:48;;;;;;;0.63;0.60;;;;;;;17.52;17.04;96501.41;5095473;28;20434;-53
2022/03/21 11:41:21;;;;;;;0.50;0.40;;;;;;;18.35;16.52;96499.06;5095557;28;20518;-53
2022/03/21 11:44:14;;;;;;;0.40;0.30;;;;;;;17.34;16.94;96491.38;5095496;28;20440;-53
2022/03/21 11:46:45;;;;;;;0.93;0.73;;;;;;;17.86;16.83;96492.47;5095228;28;20435;-54
2022/03/21 11:49:45;;;;;;;5.10;0.40;;;;;;;15.15;18.20;96504.53;5095399;28;20426;-53
2022/03/21 11:52:14;;;;;;;0.40;0.30;;;;;;;14.85;18.79;96505.34;5095088;28;20472;-54
2022/03/21 11:54:43;;;;;;;0.80;0.80;;;;;;;15.75;18.53;96501.78;5095588;28;20424;-53
2022/03/21 11:57:24;;;;;;;0.67;0.50;;;;;;;16.15;18.96;96487.41;5095142;28;20515;-53
2022/03/21 11:59:59;;;;;;;4.03;0.40;;;;;;;16.44;17.49;96496.34;5094790;28;20428;-53
2022/03/21 12:03:01;;;;;;;0.53;0.40;;;;;;;16.80;16.81;96493.47;5095276;28;20501;-53
2022/03/21 12:05:54;;;;;;;0.87;0.40;;;;;;;16.23;17.42;96478.00;5094763;28;20463;-53
2022/03/21 12:08:38;;;;;;;0.40;0.40;;;;;;;16.61;17.61;96484.50;5094246;28;21150;-53
2022/03/21 12:11:07;;;;;;;0.63;0.63;;;;;;;17.84;17.50;96484.69;5094638;28;20973;-54
2022/03/21 12:13:48;;;;;;;0.63;0.50;;;;;;;18.36;16.70;96430.06;5094733;28;20467;-54
2022/03/21 12:16:21;;;;;;;0.40;0.30;;;;;;;17.98;16.99;96477.56;5094818;28;20507;-54
2022/03/21 12:19:02;;;;;;;1.43;0.47;;;;;;;17.06;17.34;96428.69;5094603;28;20429;-54
2022/03/21 12:21:30;;;;;;;0.53;0.53;;;;;;;17.61;16.72;96477.44;5094990;28;20830;-54
2022/03/21 12:24:15;;;;;;;2.70;0.90;;;;;;;17.70;16.04;96479.22;5094605;28;20794;-54